CheckWX is a tool to help pilots better visualize weather data.  It is not intended as a substitute for an official pre-flight weather briefing.

06:10:04 UTC

KPIH METAR
Pocatello Regional Airport
Pocatello, Idaho, USA
Current

17 mins ago

KPIH 230553Z AUTO 19007KT 10SM CLR 08/03 A3020 RMK AO2 SLP211 T00780033 10161 20078 50006
Observed
Apr-23 @ 05:53 UTC
Wind
  • 190° at 7 KTS
Visibility
10 SM
Flight Rules
VFR
Cloud Levels
  • Clear skies
Temperature
C / 46°F
Dewpoint
C / 37°F
Humidity
71%
Altimeter
30.2" Hg
Pressure
1022.72 hPa
Previous

1 hour ago

KPIH 230453Z AUTO 20007KT 10SM CLR 08/04 A3020 RMK AO2 SLP214 T00830039
Observed
Apr-23 @ 04:53 UTC
Wind
  • 200° at 7 KTS
Visibility
10 SM
Flight Rules
VFR
Cloud Levels
  • Clear skies
Temperature
C / 46°F
Dewpoint
C / 39°F
Humidity
76%
Altimeter
30.2" Hg
Pressure
1022.72 hPa
Previous

2 hours ago

KPIH 230353Z 20007KT 10SM CLR 09/04 A3019 RMK AO2 SLP213 T00890044
Observed
Apr-23 @ 03:53 UTC
Wind
  • 200° at 7 KTS
Visibility
10 SM
Flight Rules
VFR
Cloud Levels
  • Clear skies
Temperature
C / 48°F
Dewpoint
C / 39°F
Humidity
71%
Altimeter
30.19" Hg
Pressure
1022.32 hPa